Terminal Aerodrome Forecast
Issued by NWS

Home | Current Version | Previous Version | Text Only | Print | Product List | Glossary On
Versions: 1 2 3 4 5 6 7 8 9 10 11 12 13 14 15 16 17 18 19 20 21 22 23
763
FTUS43 KDLH 311738
TAFBRD
TAF
KBRD 311738Z 3118/0118 12005KT P6SM OVC006
     FM311900 19011KT P6SM SCT025 BKN060
     FM312300 19008KT P6SM BKN080
     FM011000 23011KT P6SM VCSH BKN025
     FM011500 25012G22KT P6SM VCSH BKN025=

USA.gov is the U.S. government's official web portal to all federal, state and local government web resources and services.